Time;durP1;ratioP1;P1;durP2;ratioP2;P2;SDS_P1;SDS_P2;PMS_P1;PMS_P2;Temp;Humidity;BMP_temperature;BMP_pressure;BME280_temperature;BME280_humidity;BME280_pressure;Samples;Min_cycle;Max_cycle;Signal;HPM_P1;HPM_P2
2021/12/03 00:01:18;;;;;;;1.40;0.60;;;;;;;18.47;53.40;99869.34;5083903;28;21020;-65
2021/12/03 00:03:44;;;;;;;1.60;0.70;;;;;;;18.53;53.35;99869.84;5114509;28;20254;-65
2021/12/03 00:06:10;;;;;;;1.90;0.80;;;;;;;18.53;53.21;99884.97;5079348;28;20439;-65
2021/12/03 00:08:36;;;;;;;2.03;0.70;;;;;;;18.55;53.15;99890.28;5113610;28;20415;-65
2021/12/03 00:11:03;;;;;;;1.77;0.80;;;;;;;18.53;53.39;99904.16;5109094;28;20453;-65
2021/12/03 00:13:30;;;;;;;1.67;0.73;;;;;;;18.48;53.60;99910.22;5093573;28;20235;-65
2021/12/03 00:15:56;;;;;;;1.60;0.73;;;;;;;18.50;53.40;99911.47;5117670;27;20407;-65
2021/12/03 00:18:21;;;;;;;1.57;0.70;;;;;;;18.52;53.38;99911.88;5075964;28;21087;-65
2021/12/03 00:20:47;;;;;;;1.70;0.80;;;;;;;18.53;53.35;99921.28;5098017;28;20428;-65
2021/12/03 00:23:13;;;;;;;1.70;0.90;;;;;;;18.53;53.30;99927.00;5098438;27;20180;-65
2021/12/03 00:25:38;;;;;;;1.40;0.63;;;;;;;18.47;53.59;99920.81;5096823;27;20208;-65
2021/12/03 00:28:04;;;;;;;1.40;0.70;;;;;;;18.54;53.60;99925.78;5100335;28;20185;-65
2021/12/03 00:30:29;;;;;;;1.30;0.60;;;;;;;18.55;53.24;99918.84;5112981;28;20189;-65
2021/12/03 00:32:54;;;;;;;1.50;0.70;;;;;;;18.51;53.33;99920.88;5112957;28;20174;-65
2021/12/03 00:35:20;;;;;;;1.90;0.87;;;;;;;18.52;53.08;99929.03;5114310;28;20275;-65
2021/12/03 00:37:46;;;;;;;1.73;1.00;;;;;;;18.50;53.45;99933.50;5102819;28;20278;-65
2021/12/03 00:40:16;;;;;;;1.60;0.70;;;;;;;18.50;53.44;99930.63;5104266;28;20172;-65
2021/12/03 00:42:41;;;;;;;1.73;0.63;;;;;;;18.50;53.16;99927.78;5112928;28;20438;-65
2021/12/03 00:45:08;;;;;;;1.57;0.60;;;;;;;18.49;53.45;99932.69;5113130;28;20443;-65
2021/12/03 00:47:34;;;;;;;1.63;0.80;;;;;;;18.48;53.34;99944.50;5108425;28;20227;-65
2021/12/03 00:49:59;;;;;;;1.60;0.80;;;;;;;18.47;53.33;99957.97;5105517;28;20423;-65
2021/12/03 00:52:25;;;;;;;1.63;0.87;;;;;;;18.49;53.42;99957.59;5113557;28;20170;-65
2021/12/03 00:54:50;;;;;;;2.17;0.90;;;;;;;18.55;53.24;99959.72;5095678;28;20177;-65
2021/12/03 00:57:16;;;;;;;1.80;0.90;;;;;;;18.52;53.18;99969.06;5088182;28;20853;-65
2021/12/03 00:59:41;;;;;;;2.17;0.90;;;;;;;18.49;53.21;99975.56;5081913;28;20216;-65
2021/12/03 01:02:07;;;;;;;1.93;1.00;;;;;;;18.54;53.05;99978.09;5099174;28;20192;-65
2021/12/03 01:04:33;;;;;;;2.47;1.10;;;;;;;18.56;52.72;99972.78;5111697;28;20169;-65
2021/12/03 01:06:58;;;;;;;2.00;1.00;;;;;;;18.48;53.08;99978.81;5090052;28;20178;-65
2021/12/03 01:09:23;;;;;;;1.63;0.80;;;;;;;18.50;52.98;99968.63;5096826;28;20569;-65
2021/12/03 01:11:49;;;;;;;1.50;0.70;;;;;;;18.46;53.64;99981.25;5074483;28;20178;-65
2021/12/03 01:14:15;;;;;;;2.63;1.00;;;;;;;18.50;53.02;99985.78;5100672;27;20583;-65
2021/12/03 01:16:40;;;;;;;2.27;0.93;;;;;;;18.45;53.16;99979.56;5133495;27;20188;-65
2021/12/03 01:19:06;;;;;;;1.53;0.70;;;;;;;18.46;53.14;99996.34;5118854;27;20170;-65
2021/12/03 01:21:31;;;;;;;1.93;0.90;;;;;;;18.47;53.30;99994.31;5095527;28;20637;-65
2021/12/03 01:23:57;;;;;;;1.93;0.90;;;;;;;18.49;53.13;99989.03;5105596;27;20196;-65
2021/12/03 01:26:23;;;;;;;1.80;0.90;;;;;;;18.49;53.16;99994.75;5111898;28;20204;-65
2021/12/03 01:28:48;;;;;;;1.70;0.80;;;;;;;18.47;52.98;99997.97;5088532;28;20204;-65
2021/12/03 01:31:14;;;;;;;1.73;0.80;;;;;;;18.44;53.71;99995.09;5094190;28;20419;-65
2021/12/03 01:33:40;;;;;;;1.60;0.80;;;;;;;18.45;53.38;99988.16;5112511;28;20184;-65
2021/12/03 01:36:05;;;;;;;1.50;0.63;;;;;;;18.43;53.24;100000.00;5094875;28;20178;-65
2021/12/03 01:38:31;;;;;;;1.80;0.90;;;;;;;18.48;52.85;99993.09;5102691;28;20166;-65
2021/12/03 01:40:56;;;;;;;3.00;0.70;;;;;;;18.47;53.01;99995.13;5112369;28;20178;-65
2021/12/03 01:43:24;;;;;;;1.93;1.00;;;;;;;18.44;53.18;100007.34;5111897;28;20174;-65
2021/12/03 01:45:53;;;;;;;1.87;0.90;;;;;;;18.44;52.95;100010.22;5094617;28;20229;-65
2021/12/03 01:48:19;;;;;;;1.87;0.80;;;;;;;18.45;53.20;100005.31;5081940;28;20427;-65
2021/12/03 01:50:45;;;;;;;1.50;0.70;;;;;;;18.42;53.58;100012.63;5074054;28;20499;-65
2021/12/03 01:53:11;;;;;;;1.80;0.80;;;;;;;18.43;53.52;100007.72;5092356;28;20178;-65
2021/12/03 01:55:37;;;;;;;1.80;0.80;;;;;;;18.45;53.12;100008.16;5094157;28;20216;-65
2021/12/03 01:58:03;;;;;;;1.77;0.73;;;;;;;18.43;53.06;100005.72;5104758;28;20550;-65
2021/12/03 02:00:39;;;;;;;2.00;0.80;;;;;;;18.39;53.10;100010.56;5111315;28;20174;-65
2021/12/03 02:03:07;;;;;;;2.23;0.83;;;;;;;18.42;53.34;100008.94;5111962;27;20430;-65
2021/12/03 02:05:33;;;;;;;1.50;0.70;;;;;;;18.43;53.02;100002.84;5131878;27;20447;-65
2021/12/03 02:07:58;;;;;;;2.20;0.80;;;;;;;18.43;53.07;100002.84;5108299;27;20444;-65
2021/12/03 02:10:24;;;;;;;1.73;0.90;;;;;;;18.43;53.15;100008.56;5111321;28;20190;-65
2021/12/03 02:12:49;;;;;;;1.70;0.73;;;;;;;18.41;53.42;100008.13;5107053;28;20227;-65
2021/12/03 02:15:14;;;;;;;1.90;0.80;;;;;;;18.40;53.37;100012.19;5120148;27;20166;-65
2021/12/03 02:17:40;;;;;;;1.70;0.70;;;;;;;18.40;53.38;100015.06;5131600;27;20263;-65
2021/12/03 02:20:09;;;;;;;2.00;1.10;;;;;;;18.43;53.12;100020.00;5109341;27;20170;-65
2021/12/03 02:22:36;;;;;;;1.70;0.87;;;;;;;18.39;53.21;100019.13;5128088;27;20202;-65
2021/12/03 02:25:01;;;;;;;1.90;0.80;;;;;;;18.42;53.17;100021.19;5119623;27;20521;-65
2021/12/03 02:27:27;;;;;;;2.07;0.90;;;;;;;18.41;52.92;100019.53;5105842;28;20421;-65
2021/12/03 02:29:52;;;;;;;1.70;0.83;;;;;;;18.42;53.12;100024.03;5111282;28;20177;-65
2021/12/03 02:32:17;;;;;;;2.03;1.20;;;;;;;18.38;53.31;100026.06;5101256;28;20183;-65
2021/12/03 02:34:43;;;;;;;2.47;1.13;;;;;;;18.44;53.15;100033.06;5111083;28;20165;-65
2021/12/03 02:37:08;;;;;;;2.27;0.77;;;;;;;18.44;53.12;100037.97;5111233;28;20166;-65
2021/12/03 02:39:34;;;;;;;2.00;1.00;;;;;;;18.44;53.24;100035.09;5091554;28;20636;-65
2021/12/03 02:41:59;;;;;;;1.50;0.73;;;;;;;18.44;53.22;100041.66;5086036;28;20629;-65
2021/12/03 02:44:25;;;;;;;1.90;1.00;;;;;;;18.47;52.93;100042.91;5091162;28;20380;-66
2021/12/03 02:46:50;;;;;;;1.50;0.80;;;;;;;18.44;53.08;100046.53;5091428;28;20582;-65
2021/12/03 02:49:15;;;;;;;2.37;0.90;;;;;;;18.44;53.10;100055.94;5093951;28;20174;-65
2021/12/03 02:51:41;;;;;;;1.40;0.70;;;;;;;18.38;53.13;100063.22;5097980;28;20174;-65
2021/12/03 02:54:07;;;;;;;2.53;1.00;;;;;;;18.37;53.76;100072.16;5090014;28;20254;-65
2021/12/03 02:56:32;;;;;;;1.50;1.00;;;;;;;18.35;53.35;100066.00;5055040;28;20499;-65
2021/12/03 02:58:58;;;;;;;1.83;0.80;;;;;;;18.39;53.33;100070.56;5091260;28;20214;-65
2021/12/03 03:01:23;;;;;;;1.50;0.83;;;;;;;18.43;53.03;100071.44;5097590;28;20189;-65
2021/12/03 03:03:49;;;;;;;2.10;1.00;;;;;;;18.43;52.94;100076.34;5073030;28;20180;-65
2021/12/03 03:06:14;;;;;;;1.60;0.80;;;;;;;18.37;53.27;100080.75;5104781;28;20185;-65
2021/12/03 03:08:41;;;;;;;3.53;1.07;;;;;;;18.36;53.33;100079.09;5096387;28;20182;-65
2021/12/03 03:11:07;;;;;;;1.40;0.67;;;;;;;18.44;53.11;100077.97;5096741;28;20262;-65
2021/12/03 03:13:33;;;;;;;1.80;0.90;;;;;;;18.42;53.07;100074.69;5106329;28;20864;-65
2021/12/03 03:15:59;;;;;;;1.97;0.93;;;;;;;18.37;53.10;100078.69;5106835;28;20620;-65
2021/12/03 03:18:26;;;;;;;1.63;0.80;;;;;;;18.34;53.11;100073.75;5117287;28;20431;-65
2021/12/03 03:20:52;;;;;;;2.23;0.97;;;;;;;18.36;53.04;100071.31;5075928;28;20166;-65
2021/12/03 03:23:17;;;;;;;2.17;1.07;;;;;;;18.33;53.64;100072.13;5089743;28;20418;-65
2021/12/03 03:25:43;;;;;;;1.93;0.93;;;;;;;18.31;53.18;100068.78;5075661;28;20962;-65
2021/12/03 03:28:09;;;;;;;1.90;1.00;;;;;;;18.34;53.43;100073.75;5111058;28;20253;-65
2021/12/03 03:30:35;;;;;;;2.10;1.00;;;;;;;18.34;52.91;100085.19;5110312;28;20276;-65
2021/12/03 03:33:01;;;;;;;2.10;1.10;;;;;;;18.38;52.83;100090.97;5069857;28;20576;-65
2021/12/03 03:35:26;;;;;;;1.60;0.80;;;;;;;18.33;53.26;100092.13;5095769;28;20170;-65
2021/12/03 03:37:52;;;;;;;1.80;0.90;;;;;;;18.31;53.16;100093.69;5091876;28;20173;-65
2021/12/03 03:40:17;;;;;;;2.00;1.10;;;;;;;18.40;52.92;100099.97;5103304;28;20186;-65
2021/12/03 03:42:43;;;;;;;2.10;1.27;;;;;;;18.35;52.80;100098.28;5089769;28;20671;-65
2021/12/03 03:45:10;;;;;;;3.53;1.00;;;;;;;18.33;53.37;100100.69;5107924;28;20231;-65
2021/12/03 03:47:36;;;;;;;1.70;1.00;;;;;;;18.34;53.03;100101.50;5101568;28;20208;-65
2021/12/03 03:50:02;;;;;;;1.70;0.97;;;;;;;18.36;52.96;100110.53;5110512;28;21179;-65
2021/12/03 03:52:28;;;;;;;1.73;1.00;;;;;;;18.33;53.17;100122.72;5093009;28;20415;-65
2021/12/03 03:54:53;;;;;;;1.90;0.90;;;;;;;18.37;53.02;100112.97;5088738;28;20166;-65
2021/12/03 03:57:19;;;;;;;2.37;1.20;;;;;;;18.39;53.20;100119.16;5105354;28;20174;-65
2021/12/03 03:59:44;;;;;;;1.80;1.10;;;;;;;18.33;53.14;100112.13;5092715;28;20185;-66
2021/12/03 04:02:10;;;;;;;2.53;1.20;;;;;;;18.35;53.17;100106.84;5111181;28;20536;-65
2021/12/03 04:04:35;;;;;;;1.60;1.03;;;;;;;18.37;52.96;100110.13;5084038;28;20182;-65
2021/12/03 04:07:01;;;;;;;1.90;0.90;;;;;;;18.36;53.05;100122.78;5093884;28;20181;-65
2021/12/03 04:09:26;;;;;;;1.93;1.10;;;;;;;18.39;52.96;100119.16;5091862;28;20195;-65
2021/12/03 04:11:51;;;;;;;2.37;1.10;;;;;;;18.40;52.65;100123.66;5108328;28;20186;-65
2021/12/03 04:14:17;;;;;;;1.70;0.90;;;;;;;18.38;52.80;100128.13;5114288;27;20811;-65
2021/12/03 04:16:42;;;;;;;1.43;0.67;;;;;;;18.37;52.93;100130.13;5108187;27;20175;-65
2021/12/03 04:19:08;;;;;;;1.90;1.03;;;;;;;18.31;53.18;100128.78;5114555;28;20173;-65
2021/12/03 04:21:33;;;;;;;2.00;1.10;;;;;;;18.38;52.84;100123.22;5110495;28;20637;-65
2021/12/03 04:23:58;;;;;;;2.03;1.17;;;;;;;18.37;52.75;100124.41;5094247;28;20173;-65
2021/12/03 04:26:24;;;;;;;1.90;0.93;;;;;;;18.35;52.73;100129.72;5113150;28;20202;-65
2021/12/03 04:28:49;;;;;;;2.30;1.00;;;;;;;18.34;52.96;100128.06;5096053;28;20177;-65
2021/12/03 04:31:15;;;;;;;2.00;0.97;;;;;;;18.37;53.08;100130.13;5112873;27;20170;-65
2021/12/03 04:33:40;;;;;;;1.70;0.93;;;;;;;18.38;52.65;100125.25;5108478;28;20788;-65
2021/12/03 04:36:06;;;;;;;2.27;1.17;;;;;;;18.39;52.82;100130.59;5094978;28;20173;-65
2021/12/03 04:38:31;;;;;;;1.60;0.93;;;;;;;18.34;53.14;100133.78;5095820;28;20170;-65
2021/12/03 04:40:56;;;;;;;2.13;1.20;;;;;;;18.31;53.12;100139.41;5112921;28;20174;-66
2021/12/03 04:43:22;;;;;;;2.00;1.00;;;;;;;18.29;53.31;100139.78;5110653;28;20199;-66
2021/12/03 04:45:47;;;;;;;2.00;1.00;;;;;;;18.30;53.27;100138.56;5106661;28;20247;-66
2021/12/03 04:48:13;;;;;;;1.97;1.00;;;;;;;18.34;52.74;100142.34;5092101;28;20175;-66
2021/12/03 04:50:40;;;;;;;2.10;1.10;;;;;;;18.32;53.42;100143.91;5098913;28;20171;-65
2021/12/03 04:53:05;;;;;;;2.40;1.47;;;;;;;18.27;52.76;100158.53;5091021;28;20177;-65
2021/12/03 04:55:31;;;;;;;6.80;4.07;;;;;;;17.69;46.90;100155.03;5105425;28;20424;-66
2021/12/03 04:57:56;;;;;;;8.60;5.63;;;;;;;17.30;39.36;100164.81;5111467;28;20297;-66
2021/12/03 05:00:49;;;;;;;8.90;5.33;;;;;;;17.19;45.74;100162.91;5090480;28;20648;-66
2021/12/03 05:03:15;;;;;;;16.97;5.20;;;;;;;17.57;41.72;100162.94;5110539;28;20198;-66
2021/12/03 05:05:45;;;;;;;10.93;5.50;;;;;;;17.84;40.38;100164.69;5102967;28;20536;-66
2021/12/03 05:08:11;;;;;;;12.90;4.70;;;;;;;18.01;40.72;100172.75;5075694;28;20182;-66
2021/12/03 05:10:38;;;;;;;16.63;6.07;;;;;;;18.14;41.30;100174.19;5092643;28;20950;-66
2021/12/03 05:13:08;;;;;;;9.50;3.97;;;;;;;18.29;41.52;100167.53;5076025;28;20169;-66
2021/12/03 05:15:34;;;;;;;12.37;4.00;;;;;;;18.47;41.59;100172.34;5092328;27;21016;-66
2021/12/03 05:18:00;;;;;;;10.50;3.90;;;;;;;18.60;41.71;100172.97;5094581;28;20427;-66
2021/12/03 05:20:26;;;;;;;18.73;4.57;;;;;;;18.78;41.85;100174.91;5096235;28;20583;-66
2021/12/03 05:22:53;;;;;;;16.00;3.90;;;;;;;18.77;41.99;100170.38;5092578;28;20424;-66
2021/12/03 05:25:18;;;;;;;16.33;4.50;;;;;;;18.64;43.25;100176.72;5078144;28;20665;-66
2021/12/03 05:27:44;;;;;;;9.17;3.00;;;;;;;18.64;43.45;100179.56;5095678;28;20439;-66
2021/12/03 05:30:10;;;;;;;13.63;3.30;;;;;;;18.66;43.75;100189.41;5074879;28;20581;-66
2021/12/03 05:32:35;;;;;;;12.17;3.23;;;;;;;18.65;44.33;100193.50;5092823;28;20174;-66
2021/12/03 05:35:01;;;;;;;7.83;2.90;;;;;;;18.58;44.57;100204.81;5092557;28;20175;-66
2021/12/03 05:37:26;;;;;;;9.80;2.77;;;;;;;18.59;45.04;100197.06;5092946;28;20204;-66
2021/12/03 05:39:52;;;;;;;9.33;2.60;;;;;;;18.60;45.22;100210.97;5092579;28;20174;-66
2021/12/03 05:42:17;;;;;;;9.53;2.83;;;;;;;18.68;45.34;100207.03;5096497;27;20194;-66
2021/12/03 05:44:42;;;;;;;19.53;3.10;;;;;;;18.67;45.49;100191.06;5091727;28;20166;-66
2021/12/03 05:47:08;;;;;;;4.17;2.40;;;;;;;18.68;46.14;100198.47;5113115;28;20185;-66
2021/12/03 05:49:33;;;;;;;7.20;2.43;;;;;;;18.71;45.96;100208.31;5110996;28;20166;-66
2021/12/03 05:51:59;;;;;;;9.80;2.87;;;;;;;18.70;46.57;100201.75;5109956;28;20181;-66
2021/12/03 05:54:25;;;;;;;8.80;2.47;;;;;;;18.63;46.57;100197.94;5112378;28;20173;-66
2021/12/03 05:56:51;;;;;;;9.20;2.70;;;;;;;18.56;46.79;100194.97;5094459;28;20162;-66
2021/12/03 05:59:16;;;;;;;11.43;3.63;;;;;;;18.61;47.22;100203.22;5108286;28;20510;-65
2021/12/03 06:01:42;;;;;;;8.33;2.90;;;;;;;18.57;47.55;100202.34;5108791;28;20645;-64
2021/12/03 06:04:07;;;;;;;7.27;2.67;;;;;;;18.49;47.55;100206.28;5095124;28;20171;-64
2021/12/03 06:06:33;;;;;;;7.57;2.40;;;;;;;18.49;48.14;100215.69;5091828;28;20196;-64
2021/12/03 06:08:58;;;;;;;6.20;2.07;;;;;;;18.45;48.13;100211.09;5110357;28;20638;-64
2021/12/03 06:11:25;;;;;;;12.17;2.50;;;;;;;18.43;48.28;100207.81;5111655;28;20222;-64
2021/12/03 06:13:50;;;;;;;8.30;2.30;;;;;;;18.45;48.41;100208.25;5107939;28;20182;-64
2021/12/03 06:16:16;;;;;;;12.10;2.20;;;;;;;18.42;48.75;100211.91;5082591;28;20436;-65
2021/12/03 06:18:41;;;;;;;6.20;2.23;;;;;;;18.40;48.69;100200.84;5113584;27;20181;-65
2021/12/03 06:21:08;;;;;;;13.17;2.13;;;;;;;18.44;48.68;100204.59;5107721;28;20170;-65
2021/12/03 06:23:33;;;;;;;9.70;2.30;;;;;;;18.37;48.95;100198.72;5110791;28;20177;-65
2021/12/03 06:26:00;;;;;;;13.60;2.17;;;;;;;18.40;48.85;100203.69;5110384;28;20439;-65
2021/12/03 06:28:26;;;;;;;9.43;2.67;;;;;;;18.36;49.32;100194.22;5101521;28;20178;-65
2021/12/03 06:30:51;;;;;;;5.43;1.90;;;;;;;18.37;49.46;100204.44;5110662;28;20439;-65
2021/12/03 06:33:19;;;;;;;6.90;2.60;;;;;;;18.39;49.53;100206.94;5103732;28;20793;-65
2021/12/03 06:35:45;;;;;;;7.27;2.73;;;;;;;18.40;49.05;100205.72;5102190;28;20165;-65
2021/12/03 06:38:11;;;;;;;9.23;2.60;;;;;;;18.39;49.29;100213.47;5110801;27;20415;-65
2021/12/03 06:40:37;;;;;;;5.53;2.20;;;;;;;18.41;49.22;100216.78;5084250;28;20420;-65
2021/12/03 06:43:02;;;;;;;3.53;1.73;;;;;;;18.41;49.27;100216.78;5110850;28;20970;-65
2021/12/03 06:45:28;;;;;;;6.87;2.23;;;;;;;18.41;49.57;100233.13;5102277;28;20248;-65
2021/12/03 06:47:53;;;;;;;8.30;1.83;;;;;;;18.38;49.62;100229.00;5109689;28;20174;-65
2021/12/03 06:50:19;;;;;;;4.50;2.17;;;;;;;18.35;49.72;100238.31;5110712;28;20541;-65
2021/12/03 06:52:48;;;;;;;7.77;2.13;;;;;;;18.38;49.89;100246.13;5112119;28;20166;-65
2021/12/03 06:55:15;;;;;;;5.03;2.17;;;;;;;18.45;49.84;100246.25;5107472;28;20415;-65
2021/12/03 06:57:44;;;;;;;8.23;2.13;;;;;;;18.41;49.88;100251.06;5080269;28;20456;-65
2021/12/03 07:00:13;;;;;;;6.23;2.10;;;;;;;18.36;49.96;100242.00;5072935;28;20432;-65
2021/12/03 07:02:38;;;;;;;5.27;1.87;;;;;;;18.47;49.57;100240.97;5107484;28;20412;-65
2021/12/03 07:05:06;;;;;;;4.83;1.67;;;;;;;18.46;49.92;100239.31;5110306;28;20439;-65
2021/12/03 07:07:31;;;;;;;5.20;2.30;;;;;;;18.43;49.89;100247.84;5102213;28;20179;-65
2021/12/03 07:09:57;;;;;;;6.97;2.17;;;;;;;18.46;50.04;100258.53;5095728;28;20444;-65
2021/12/03 07:12:22;;;;;;;4.00;1.90;;;;;;;18.52;49.86;100257.78;5073071;28;20174;-65
2021/12/03 07:14:48;;;;;;;4.73;1.90;;;;;;;18.44;50.26;100263.78;5110629;28;20272;-65
2021/12/03 07:17:13;;;;;;;3.80;1.70;;;;;;;18.48;50.18;100265.50;5131521;28;20225;-65
2021/12/03 07:19:39;;;;;;;4.53;2.00;;;;;;;18.42;50.46;100269.06;5107756;28;20626;-65
2021/12/03 07:22:04;;;;;;;6.53;1.67;;;;;;;18.42;50.38;100261.28;5109649;28;20170;-65
2021/12/03 07:24:30;;;;;;;5.50;2.00;;;;;;;18.42;50.66;100269.88;5110326;28;21800;-65
2021/12/03 07:26:55;;;;;;;6.80;1.83;;;;;;;18.48;50.30;100271.22;5102708;28;20194;-65
2021/12/03 07:29:20;;;;;;;8.77;1.70;;;;;;;18.46;50.38;100270.75;5090229;28;20275;-65
2021/12/03 07:31:46;;;;;;;2.93;1.50;;;;;;;18.47;50.30;100265.88;5091245;28;20170;-65
2021/12/03 07:34:12;;;;;;;7.57;1.80;;;;;;;18.47;50.46;100269.56;5075335;28;20177;-65
2021/12/03 07:36:38;;;;;;;4.07;2.13;;;;;;;18.49;50.25;100270.00;5104829;28;20161;-65
2021/12/03 07:39:03;;;;;;;4.63;1.90;;;;;;;18.45;50.46;100268.28;5110003;28;20411;-65
2021/12/03 07:41:29;;;;;;;6.43;2.30;;;;;;;18.50;50.57;100260.22;5106872;28;20208;-65
2021/12/03 07:43:54;;;;;;;5.20;2.20;;;;;;;18.46;50.65;100267.91;5113206;28;20173;-65
2021/12/03 07:46:20;;;;;;;4.83;1.97;;;;;;;18.49;50.35;100270.00;5086329;28;20583;-65
2021/12/03 07:48:49;;;;;;;3.80;1.90;;;;;;;18.48;50.49;100261.81;5096079;28;20182;-65
2021/12/03 07:51:15;;;;;;;7.00;2.30;;;;;;;18.47;50.96;100260.16;5107715;28;20173;-65
2021/12/03 07:53:41;;;;;;;5.80;1.90;;;;;;;18.48;50.81;100264.66;5093608;28;20457;-65
2021/12/03 07:56:08;;;;;;;3.07;1.70;;;;;;;18.43;50.93;100260.09;5095280;28;20461;-65
2021/12/03 07:58:33;;;;;;;6.10;1.87;;;;;;;18.41;51.05;100259.66;5115080;28;20212;-65
2021/12/03 08:00:59;;;;;;;6.13;2.20;;;;;;;18.44;51.16;100255.19;5104217;28;20498;-65
2021/12/03 08:03:24;;;;;;;3.60;1.97;;;;;;;18.41;51.09;100259.66;5097743;28;20170;-65
2021/12/03 08:05:50;;;;;;;5.37;2.20;;;;;;;18.41;51.09;100262.50;5095251;28;21096;-65
2021/12/03 08:08:22;;;;;;;6.03;2.03;;;;;;;18.45;50.91;100266.25;5114821;28;20717;-65
2021/12/03 08:10:48;;;;;;;5.47;1.93;;;;;;;18.45;50.85;100265.41;5113509;28;20221;-65
2021/12/03 08:13:13;;;;;;;4.73;1.70;;;;;;;18.42;50.76;100269.06;5102633;28;20534;-65
2021/12/03 08:15:38;;;;;;;3.10;1.60;;;;;;;18.42;51.14;100263.34;5118810;27;20426;-65
2021/12/03 08:18:05;;;;;;;3.87;1.77;;;;;;;18.39;50.99;100267.78;5120259;27;20178;-65
2021/12/03 08:20:31;;;;;;;3.90;1.87;;;;;;;18.41;50.98;100273.94;5110592;27;20221;-65
2021/12/03 08:22:56;;;;;;;4.50;1.80;;;;;;;18.46;51.17;100281.38;5113637;28;20807;-65
2021/12/03 08:25:22;;;;;;;5.80;1.97;;;;;;;18.47;50.96;100271.59;5098647;28;20202;-65
2021/12/03 08:27:49;;;;;;;5.30;1.97;;;;;;;18.48;50.92;100281.81;5106798;28;20178;-65
2021/12/03 08:30:14;;;;;;;4.50;1.53;;;;;;;18.48;51.19;100282.66;5103381;28;20428;-65
2021/12/03 08:32:42;;;;;;;4.17;1.80;;;;;;;18.48;51.03;100285.53;5103125;28;20415;-65
2021/12/03 08:35:08;;;;;;;5.10;2.17;;;;;;;18.50;50.90;100282.25;5102752;28;20196;-65
2021/12/03 08:37:33;;;;;;;5.67;2.07;;;;;;;18.49;50.88;100277.75;5093542;28;20428;-65
2021/12/03 08:39:58;;;;;;;3.80;1.73;;;;;;;18.47;51.29;100283.03;5096455;28;20630;-65
2021/12/03 08:42:24;;;;;;;3.47;1.63;;;;;;;18.49;51.02;100287.16;5097472;28;20177;-65
2021/12/03 08:44:50;;;;;;;5.33;1.90;;;;;;;18.49;50.97;100284.31;5101825;28;20273;-65
2021/12/03 08:47:16;;;;;;;5.17;2.10;;;;;;;18.48;50.98;100288.38;5095008;28;20196;-65
2021/12/03 08:49:51;;;;;;;5.40;1.83;;;;;;;18.46;51.26;100296.50;5098066;28;20182;-65
2021/12/03 08:54:55;;;;;;;3.57;1.80;;;;;;;18.50;51.23;100288.81;5105412;28;20423;-65
2021/12/03 08:57:23;;;;;;;3.23;1.70;;;;;;;18.45;51.34;100289.13;5100652;28;20429;-65
2021/12/03 08:59:50;;;;;;;4.30;1.77;;;;;;;18.46;51.45;100289.97;5095750;28;20420;-65
2021/12/03 09:02:15;;;;;;;2.93;1.47;;;;;;;18.51;50.87;100289.66;5097201;28;20458;-65
2021/12/03 09:04:41;;;;;;;3.40;1.90;;;;;;;18.49;51.08;100290.03;5095045;28;20980;-65
2021/12/03 09:07:06;;;;;;;4.40;1.70;;;;;;;18.51;51.27;100301.91;5075010;28;20182;-65
2021/12/03 09:09:32;;;;;;;4.53;2.10;;;;;;;18.50;51.26;100294.53;5112315;28;20198;-65
2021/12/03 09:11:57;;;;;;;2.70;1.80;;;;;;;18.61;51.08;100292.69;5111798;28;20249;-65
2021/12/03 09:14:38;;;;;;;4.90;1.80;;;;;;;18.58;50.90;100299.19;5102497;27;20223;-64
2021/12/03 09:19:40;;;;;;;8.43;2.57;;;;;;;18.42;49.13;100304.16;5103906;28;20588;-65
2021/12/03 09:22:07;;;;;;;11.60;3.50;;;;;;;18.26;47.15;100312.00;5096149;28;20431;-65
2021/12/03 09:24:36;;;;;;;7.07;3.20;;;;;;;18.22;46.71;100293.16;5094162;28;20430;-65
2021/12/03 09:27:02;;;;;;;6.07;3.37;;;;;;;18.21;46.13;100289.44;5096902;28;20459;-65
2021/12/03 09:29:35;;;;;;;9.73;3.93;;;;;;;18.14;45.25;100283.59;5110501;27;20446;-65
2021/12/03 09:32:01;;;;;;;6.97;4.80;;;;;;;18.27;44.85;100278.53;5108189;27;20170;-65
2021/12/03 09:34:31;;;;;;;9.43;4.60;;;;;;;18.50;46.65;100283.09;5111161;28;20469;-65
2021/12/03 09:36:57;;;;;;;17.70;4.30;;;;;;;18.55;44.41;100279.91;5108661;28;20439;-65
2021/12/03 09:39:23;;;;;;;7.20;3.73;;;;;;;18.70;44.58;100281.81;5084162;28;20470;-65
2021/12/03 09:41:50;;;;;;;37.07;5.27;;;;;;;19.07;44.39;100285.69;5110132;28;20177;-59
2021/12/03 09:44:18;;;;;;;7.87;3.43;;;;;;;19.05;43.69;100273.81;5101988;28;20420;-60
2021/12/03 09:46:44;;;;;;;9.23;3.30;;;;;;;19.04;43.73;100275.03;5098384;28;20534;-59
2021/12/03 09:52:03;;;;;;;10.37;4.10;;;;;;;19.55;41.80;100269.66;5106410;28;20427;-58
2021/12/03 09:54:40;;;;;;;6.30;3.50;;;;;;;19.39;42.48;100258.41;5093646;28;20447;-59
2021/12/03 09:58:03;;;;;;;13.20;4.10;;;;;;;19.17;41.26;100255.59;5089005;28;20478;-59
2021/12/03 10:00:14;;;;;;;12.10;3.00;;;;;;;19.41;41.45;100264.56;5102445;28;20435;-59
2021/12/03 10:03:03;;;;;;;7.27;3.60;;;;;;;19.54;41.72;100273.75;5098170;28;20588;-60
2021/12/03 10:16:12;;;;;;;8.63;3.50;;;;;;;19.39;44.52;100255.56;5104650;27;20750;-59
2021/12/03 10:18:54;;;;;;;7.20;3.77;;;;;;;19.41;43.70;100246.59;5080927;28;20280;-58
2021/12/03 10:21:52;;;;;;;7.30;3.33;;;;;;;19.13;43.90;100249.00;5095200;28;20436;-58
2021/12/03 10:24:43;;;;;;;5.77;2.93;;;;;;;19.07;43.85;100241.97;5098135;28;20860;-59
2021/12/03 10:31:12;;;;;;;7.23;3.40;;;;;;;18.94;44.52;100235.63;5094596;28;21114;-59
2021/12/03 10:46:30;;;;;;;8.13;2.97;;;;;;;19.24;46.22;100229.97;5101199;28;20448;-59
2021/12/03 10:49:27;;;;;;;4.33;2.70;;;;;;;19.21;45.91;100217.22;5103401;28;20176;-60
2021/12/03 10:52:00;;;;;;;5.20;2.30;;;;;;;19.22;46.35;100227.47;5106165;28;20423;-58
2021/12/03 10:57:52;;;;;;;4.80;2.13;;;;;;;19.20;46.68;100218.44;5088147;28;20465;-59
2021/12/03 13:59:25;;;;;;;3.40;1.63;;;;;;;19.08;48.49;100057.59;5095514;28;20456;-59
2021/12/03 14:09:44;;;;;;;3.33;1.70;;;;;;;19.00;49.21;100041.56;5109290;28;20447;-59
2021/12/03 14:51:48;;;;;;;4.37;2.00;;;;;;;18.75;47.52;99997.53;5104740;28;20436;-61
2021/12/03 14:57:09;;;;;;;3.97;1.80;;;;;;;18.76;47.40;99991.44;5078133;28;20463;-61
2021/12/03 14:59:36;;;;;;;2.73;1.70;;;;;;;18.74;47.05;99976.72;5090949;28;20455;-61
2021/12/03 15:02:13;;;;;;;5.70;2.30;;;;;;;18.71;47.16;99983.19;5098933;28;20945;-60
2021/12/03 15:07:14;;;;;;;3.87;2.00;;;;;;;18.71;47.16;99980.34;5104254;28;20447;-61
2021/12/03 15:09:44;;;;;;;6.27;1.60;;;;;;;18.75;46.85;99975.50;5092937;28;20202;-61
2021/12/03 15:57:17;;;;;;;5.77;2.50;;;;;;;18.57;47.35;99945.03;5111335;28;20766;-62
2021/12/03 16:05:54;;;;;;;8.03;2.80;;;;;;;18.53;47.17;99927.00;5079155;28;20425;-62
2021/12/03 16:08:17;;;;;;;5.43;2.30;;;;;;;18.57;47.08;99922.16;5097704;28;20443;-62
2021/12/03 16:22:21;;;;;;;4.80;2.60;;;;;;;18.88;46.97;99911.09;5046783;28;20425;-62
2021/12/03 16:43:55;;;;;;;4.47;1.97;;;;;;;19.02;47.85;99867.50;5093389;28;20829;-62
2021/12/03 16:54:07;;;;;;;4.73;2.00;;;;;;;18.92;48.90;99866.16;5113873;28;20455;-62
2021/12/03 16:56:33;;;;;;;4.53;2.27;;;;;;;18.93;48.60;99859.25;5079247;28;20421;-62
2021/12/03 16:58:59;;;;;;;4.33;1.90;;;;;;;18.92;48.87;99860.44;5092997;28;20464;-62
2021/12/03 17:18:29;;;;;;;4.50;1.93;;;;;;;18.91;49.25;99838.78;5099649;28;20874;-62
2021/12/03 17:49:51;;;;;;;11.73;4.40;;;;;;;18.66;45.81;99794.03;5107210;28;20465;-62
2021/12/03 17:57:43;;;;;;;12.13;3.80;;;;;;;18.60;45.27;99770.69;5091753;28;20546;-62
2021/12/03 18:00:34;;;;;;;11.93;3.67;;;;;;;18.56;44.72;99766.16;5092815;28;20934;-64
2021/12/03 18:03:07;;;;;;;13.13;4.20;;;;;;;18.56;43.90;99769.00;5110696;28;20420;-65
2021/12/03 18:06:04;;;;;;;10.43;3.80;;;;;;;18.48;43.94;99768.13;5109943;28;20445;-64
2021/12/03 18:08:59;;;;;;;13.83;4.07;;;;;;;18.52;43.87;99757.53;5100566;28;20415;-64
2021/12/03 18:46:50;;;;;;;31.93;13.40;;;;;;;18.74;40.44;99709.94;5098862;28;20816;-64
2021/12/03 18:52:01;;;;;;;25.07;12.57;;;;;;;18.80;39.19;99688.31;5102738;28;20447;-64
2021/12/03 18:55:03;;;;;;;23.47;13.40;;;;;;;18.72;39.93;99678.88;5099500;28;20525;-64
2021/12/03 18:57:22;;;;;;;23.90;13.23;;;;;;;18.75;40.08;99680.09;5099498;28;20511;-64